メインページ
METAR-TAF:

METAR-TAF

空港 :

デトロイト, ミシガン州, アメリカ合衆国

緯度: 42-14-12N, 経度: 083-31-34W, 海抜: 218m

現時点の気象観測

当レポートは49分前の01:53(UTC)に作成
北西の風 7kt
気温 -1°C
湿度 59%
気圧 1027 hPa
視程: 16.1km
晴天

METAR: KYIP 070153Z 31007KT 10SM CLR M01/M08 A3032 RMK AO2 SLP273 T10111078 $

時間: 21:42 (02:42 UTC)

予報

当レポートは3時間7分前の23:35(UTC)に作成
予報は07日の 00時(UTC)から 07日の 24時(UTC)まで有効
北/北西の風 12kt
視程: 10km
高度4500ftの曇り
07日の 0300時(UTC)から
北/北西の風 5kt
視程: 10km
高度25000ftの雲は散在している
07日の 0900時(UTC)から
変向風 3kt
視程: 10km
高度15000ftの曇り
07日の 1500時(UTC)から
南西の風 5kt
視程: 10km
高度10000ftの曇り
07日の 2100時(UTC)から
北/北西の風 10kt
視程: 10km
高度15000ftの曇り

TAF: KYIP 062335Z 0700/0724 33012KT P6SM OVC045 FM070300 33005KT P6SM SCT250 FM070900 VRB03KT P6SM OVC150 FM071500 22005KT P6SM OVC100 FM072100 33010KT P6SM OVC150

4,000以上の空港の気象観測と天気予報(METAR報とTAF報)

利用可能な観測所は地図上に黄色い丸と赤い丸で示す。

丸の上にカーソルを重ねると観測所名を参照できる。

次にクリックすると気象観測と天気予報を参照できる。

マップの切り替え:黒色「×」印の緑ボタンをクリックして拡大、「-」印の緑ボタンをクリックして縮小、緑色の三角印をクリックして隣りの地図に切り替え


METAR-TAF: